Time;durP1;ratioP1;P1;durP2;ratioP2;P2;SDS_P1;SDS_P2;PMS_P1;PMS_P2;Temp;Humidity;BMP_temperature;BMP_pressure;BME280_temperature;BME280_humidity;BME280_pressure;Samples;Min_cycle;Max_cycle;Signal;HPM_P1;HPM_P2
2023/05/23 00:01:36;;;;;;;20.92;9.60;;;14.60;82.00;;;;;;4932226;28;20058;-78
2023/05/23 00:04:02;;;;;;;12.48;6.50;;;14.70;81.60;;;;;;4947787;28;20059;-78
2023/05/23 00:06:31;;;;;;;16.65;7.63;;;14.70;82.20;;;;;;4949181;28;20060;-78
2023/05/23 00:08:58;;;;;;;13.67;5.30;;;14.60;82.50;;;;;;4967590;28;20502;-78
2023/05/23 00:11:27;;;;;;;14.00;6.65;;;14.60;82.40;;;;;;4966525;28;20485;-78
2023/05/23 00:13:56;;;;;;;16.35;9.57;;;14.60;82.80;;;;;;4967480;28;20586;-78
2023/05/23 00:16:23;;;;;;;11.77;5.80;;;14.60;82.90;;;;;;4951069;28;20106;-78
2023/05/23 00:18:50;;;;;;;12.30;5.70;;;14.60;82.60;;;;;;4954748;28;20055;-78
2023/05/23 00:21:17;;;;;;;12.50;6.37;;;14.50;83.00;;;;;;4970418;28;20081;-78
2023/05/23 00:23:45;;;;;;;14.75;7.80;;;14.50;82.80;;;;;;4970077;28;20437;-78
2023/05/23 00:26:12;;;;;;;13.52;7.15;;;14.50;83.10;;;;;;4970337;28;20055;-78
2023/05/23 00:28:45;;;;;;;15.32;7.72;;;14.50;83.50;;;;;;4985903;28;20576;-78
2023/05/23 00:31:12;;;;;;;15.45;7.40;;;14.50;83.50;;;;;;4986538;28;20051;-78
2023/05/23 00:33:40;;;;;;;15.87;8.83;;;14.50;83.30;;;;;;4966882;28;20047;-78
2023/05/23 00:36:07;;;;;;;17.95;8.80;;;14.50;83.00;;;;;;4954130;28;20134;-78
2023/05/23 00:38:34;;;;;;;21.55;11.55;;;14.50;83.00;;;;;;4954387;28;20047;-78
2023/05/23 00:41:03;;;;;;;20.02;8.27;;;14.50;83.50;;;;;;4938050;28;20047;-78
2023/05/23 00:43:30;;;;;;;21.17;10.45;;;14.50;83.50;;;;;;4950580;28;20593;-78
2023/05/23 00:45:57;;;;;;;20.60;9.47;;;14.50;83.30;;;;;;4934391;28;20335;-78
2023/05/23 00:48:25;;;;;;;18.63;9.18;;;14.50;83.00;;;;;;4985552;28;20051;-78
2023/05/23 00:50:52;;;;;;;22.17;9.93;;;14.50;83.00;;;;;;4959325;28;20051;-78
2023/05/23 00:53:20;;;;;;;18.38;9.27;;;14.50;82.80;;;;;;4953907;28;20047;-78
2023/05/23 00:55:48;;;;;;;21.00;10.55;;;14.50;83.50;;;;;;4970366;28;20118;-78
2023/05/23 00:58:17;;;;;;;15.70;7.37;;;14.50;83.50;;;;;;4949153;28;20146;-78
2023/05/23 01:00:45;;;;;;;19.05;9.40;;;14.50;83.00;;;;;;4954359;28;20525;-78
2023/05/23 01:03:17;;;;;;;14.65;8.15;;;14.50;83.50;;;;;;4970044;28;20090;-78
2023/05/23 01:05:44;;;;;;;11.75;6.20;;;14.40;83.30;;;;;;4953930;28;20051;-78
2023/05/23 01:08:11;;;;;;;15.40;8.13;;;14.50;83.60;;;;;;4949344;28;20556;-77
2023/05/23 01:10:39;;;;;;;8.63;4.50;;;14.40;83.20;;;;;;4976925;28;20043;-78
2023/05/23 01:13:16;;;;;;;13.75;7.85;;;14.40;83.40;;;;;;4969713;28;20059;-79
2023/05/23 01:15:51;;;;;;;12.05;7.00;;;14.40;83.30;;;;;;4952570;28;20157;-78
2023/05/23 01:18:24;;;;;;;5.13;2.90;;;14.40;83.00;;;;;;4952531;28;20055;-78
2023/05/23 01:20:55;;;;;;;10.60;6.15;;;14.40;83.20;;;;;;4969180;28;20127;-78
2023/05/23 01:23:55;;;;;;;10.67;5.97;;;14.40;83.70;;;;;;4964364;28;20047;-78
2023/05/23 01:26:33;;;;;;;9.00;5.47;;;14.40;83.30;;;;;;4952084;28;20051;-78
2023/05/23 01:29:09;;;;;;;10.60;6.20;;;14.40;83.60;;;;;;4983511;28;20047;-78
2023/05/23 01:31:39;;;;;;;13.10;7.07;;;14.40;83.70;;;;;;4983816;28;20553;-78
2023/05/23 01:34:07;;;;;;;11.07;6.20;;;14.30;83.80;;;;;;4957031;28;20506;-78
2023/05/23 01:36:35;;;;;;;10.97;4.73;;;14.30;83.70;;;;;;4954566;28;20054;-78
2023/05/23 01:39:02;;;;;;;14.88;7.72;;;14.30;84.00;;;;;;4985841;28;20062;-78
2023/05/23 01:41:29;;;;;;;12.55;6.55;;;14.30;83.70;;;;;;4985064;28;20047;-78
2023/05/23 01:43:56;;;;;;;17.77;7.43;;;14.30;83.60;;;;;;4953260;28;20051;-78
2023/05/23 01:46:26;;;;;;;10.80;4.90;;;14.30;84.10;;;;;;4969056;28;20055;-78
2023/05/23 01:48:54;;;;;;;13.47;6.43;;;14.30;83.80;;;;;;4969424;28;20154;-78
2023/05/23 01:51:22;;;;;;;14.07;6.93;;;14.20;84.00;;;;;;4951910;28;20576;-78
2023/05/23 01:53:50;;;;;;;15.00;6.13;;;14.20;83.80;;;;;;4936832;28;20137;-78
2023/05/23 01:56:18;;;;;;;13.55;6.05;;;14.20;83.90;;;;;;4952749;28;20047;-78
2023/05/23 01:58:45;;;;;;;14.48;7.43;;;14.10;83.90;;;;;;4953176;28;20051;-78
2023/05/23 02:01:12;;;;;;;14.60;6.60;;;14.10;83.40;;;;;;4968700;28;20131;-78
2023/05/23 02:03:40;;;;;;;14.18;8.02;;;14.10;83.30;;;;;;4985014;28;20055;-78
2023/05/23 02:06:07;;;;;;;16.92;7.00;;;14.10;83.40;;;;;;4968608;28;20067;-78
2023/05/23 02:08:34;;;;;;;14.85;6.80;;;14.10;83.20;;;;;;4962041;28;20477;-78
2023/05/23 02:11:02;;;;;;;17.15;6.50;;;14.10;83.20;;;;;;4952555;28;20051;-78
2023/05/23 02:13:30;;;;;;;15.73;7.33;;;14.10;83.00;;;;;;4969448;28;20052;-78
2023/05/23 02:15:57;;;;;;;21.10;6.70;;;14.10;83.00;;;;;;4938431;28;20227;-78
2023/05/23 02:18:25;;;;;;;14.38;6.25;;;14.00;82.90;;;;;;4952769;28;20607;-78
2023/05/23 02:20:55;;;;;;;13.63;6.10;;;14.00;82.50;;;;;;4968241;28;20051;-78
2023/05/23 02:23:22;;;;;;;18.90;7.60;;;14.00;82.80;;;;;;4970063;28;20114;-78
2023/05/23 02:25:49;;;;;;;15.97;6.97;;;14.00;82.60;;;;;;4979530;28;20046;-78
2023/05/23 02:28:15;;;;;;;13.88;5.18;;;14.00;82.50;;;;;;4952018;28;20054;-78
2023/05/23 02:30:42;;;;;;;18.00;6.47;;;14.00;82.40;;;;;;4951979;28;20219;-78
2023/05/23 02:33:11;;;;;;;18.45;7.63;;;14.00;82.20;;;;;;4952249;28;20061;-78
2023/05/23 02:35:38;;;;;;;18.60;7.45;;;13.90;81.90;;;;;;4949124;28;20543;-78
2023/05/23 02:38:06;;;;;;;16.63;7.60;;;13.90;82.00;;;;;;4952559;28;20054;-78
2023/05/23 02:40:33;;;;;;;19.00;7.95;;;13.90;81.80;;;;;;4951330;28;20533;-78
2023/05/23 02:43:01;;;;;;;14.07;7.05;;;13.90;81.80;;;;;;4964772;28;20047;-78
2023/05/23 02:45:30;;;;;;;14.82;5.38;;;13.90;81.70;;;;;;4949197;28;20052;-78
2023/05/23 02:47:57;;;;;;;14.90;4.38;;;13.90;81.60;;;;;;4957010;28;20066;-78
2023/05/23 02:50:25;;;;;;;18.87;6.53;;;13.90;81.80;;;;;;4968254;28;20051;-78
2023/05/23 02:52:52;;;;;;;15.98;7.05;;;13.90;81.70;;;;;;4952445;28;20498;-78
2023/05/23 02:55:21;;;;;;;14.57;6.35;;;13.80;81.70;;;;;;4952041;28;20553;-78
2023/05/23 02:57:50;;;;;;;17.45;7.63;;;13.70;82.00;;;;;;4952321;28;20528;-78
2023/05/23 03:00:17;;;;;;;15.00;5.43;;;13.70;81.90;;;;;;4964037;28;20090;-78
2023/05/23 03:02:50;;;;;;;17.87;6.93;;;13.70;82.20;;;;;;4969192;28;20058;-78
2023/05/23 03:05:17;;;;;;;19.13;7.10;;;13.70;82.00;;;;;;4968122;28;20508;-78
2023/05/23 03:07:45;;;;;;;13.55;5.40;;;13.60;82.10;;;;;;4983896;28;20444;-78
2023/05/23 03:10:12;;;;;;;18.42;6.28;;;13.60;81.80;;;;;;4967468;28;20059;-78
2023/05/23 03:12:41;;;;;;;16.90;6.78;;;13.60;81.90;;;;;;4952006;28;20166;-77
2023/05/23 03:15:09;;;;;;;17.67;5.40;;;13.60;81.80;;;;;;4967623;28;20114;-78
2023/05/23 03:17:38;;;;;;;20.20;7.32;;;13.60;81.80;;;;;;4948011;28;20044;-78
2023/05/23 03:20:08;;;;;;;15.05;5.80;;;13.60;81.50;;;;;;4964434;28;20175;-78
2023/05/23 03:22:35;;;;;;;15.85;6.30;;;13.50;81.40;;;;;;4963912;28;20114;-78
2023/05/23 03:25:04;;;;;;;19.55;5.97;;;13.50;81.50;;;;;;4964386;28;20051;-78
2023/05/23 03:27:31;;;;;;;15.43;4.97;;;13.50;81.40;;;;;;4951299;28;20051;-78
2023/05/23 03:29:59;;;;;;;18.15;5.65;;;13.50;81.40;;;;;;4951507;28;20083;-78
2023/05/23 03:32:26;;;;;;;15.68;4.85;;;13.50;81.40;;;;;;4951279;28;20055;-78
2023/05/23 03:34:53;;;;;;;16.08;5.80;;;13.50;81.40;;;;;;4966476;28;20062;-78
2023/05/23 03:37:20;;;;;;;11.45;3.08;;;13.50;81.40;;;;;;4950475;28;20143;-78
2023/05/23 03:39:47;;;;;;;16.67;5.20;;;13.40;81.10;;;;;;4947977;28;20044;-78
2023/05/23 03:42:14;;;;;;;17.63;5.53;;;13.40;81.40;;;;;;4950958;28;20055;-78
2023/05/23 03:44:41;;;;;;;16.33;4.65;;;13.30;81.40;;;;;;4962223;28;20078;-78
2023/05/23 03:47:09;;;;;;;15.25;4.45;;;13.30;81.30;;;;;;4951370;28;20537;-77
2023/05/23 03:49:44;;;;;;;14.30;4.68;;;13.30;81.30;;;;;;4951053;28;20059;-78
2023/05/23 03:52:14;;;;;;;13.50;4.20;;;13.30;81.20;;;;;;4968411;28;20054;-78
2023/05/23 03:54:41;;;;;;;16.00;5.20;;;13.30;81.40;;;;;;4970883;28;20051;-78
2023/05/23 03:57:10;;;;;;;12.38;3.92;;;13.30;81.80;;;;;;4970921;28;20541;-77
2023/05/23 03:59:38;;;;;;;11.18;3.85;;;13.30;81.80;;;;;;4954505;28;20043;-78
2023/05/23 04:02:10;;;;;;;16.70;5.07;;;13.20;81.90;;;;;;4954004;28;20166;-78
2023/05/23 04:04:38;;;;;;;14.53;4.83;;;13.20;81.80;;;;;;4970997;28;20556;-78
2023/05/23 04:07:07;;;;;;;12.90;4.72;;;13.20;81.60;;;;;;4971362;28;20051;-78
2023/05/23 04:09:34;;;;;;;9.55;3.70;;;13.30;81.50;;;;;;4966389;28;20585;-78
2023/05/23 04:12:04;;;;;;;14.95;4.68;;;13.30;81.80;;;;;;4967447;28;20526;-78
2023/05/23 04:14:33;;;;;;;17.05;4.80;;;13.30;81.90;;;;;;4937874;28;20048;-78
2023/05/23 04:17:01;;;;;;;15.83;4.47;;;13.20;82.40;;;;;;4967412;28;20585;-78
2023/05/23 04:19:30;;;;;;;19.15;5.20;;;13.20;82.00;;;;;;4971964;28;20533;-78
2023/05/23 04:21:58;;;;;;;11.85;4.20;;;13.20;82.10;;;;;;4970118;28;20532;-78
2023/05/23 04:24:25;;;;;;;13.15;4.57;;;13.20;81.90;;;;;;4970321;28;20442;-78
2023/05/23 04:26:55;;;;;;;11.40;3.05;;;13.20;82.00;;;;;;4965929;28;20507;-78
2023/05/23 04:29:23;;;;;;;11.90;4.03;;;13.10;82.00;;;;;;4970491;28;20047;-78
2023/05/23 04:31:51;;;;;;;11.93;3.50;;;13.10;81.60;;;;;;4986346;28;20047;-78
2023/05/23 04:34:21;;;;;;;12.32;3.25;;;13.20;82.00;;;;;;4969589;28;20059;-77
2023/05/23 04:36:49;;;;;;;12.63;3.95;;;13.10;82.00;;;;;;4954095;28;20051;-78
2023/05/23 04:39:16;;;;;;;9.05;2.45;;;13.10;81.90;;;;;;4953943;28;20055;-77
2023/05/23 04:41:59;;;;;;;7.67;3.37;;;13.10;81.50;;;;;;4953734;28;20568;-78
2023/05/23 04:45:02;;;;;;;12.02;3.63;;;13.10;81.50;;;;;;4969795;28;20677;-78
2023/05/23 04:47:47;;;;;;;10.63;3.35;;;13.10;81.30;;;;;;4953819;28;20473;-78
2023/05/23 04:50:32;;;;;;;12.15;3.63;;;13.10;81.10;;;;;;4937715;28;20068;-78
2023/05/23 04:53:00;;;;;;;11.52;3.53;;;13.10;80.80;;;;;;4965597;28;20654;-79
2023/05/23 04:55:27;;;;;;;6.33;2.13;;;13.10;80.90;;;;;;4937703;28;20051;-78
2023/05/23 04:57:55;;;;;;;10.50;2.47;;;13.10;80.40;;;;;;4975889;28;20059;-78
2023/05/23 05:00:23;;;;;;;13.00;3.47;;;13.10;80.50;;;;;;4961414;28;20149;-78
2023/05/23 05:02:50;;;;;;;12.55;3.72;;;13.20;80.40;;;;;;4948986;28;20533;-78
2023/05/23 05:05:18;;;;;;;8.98;3.20;;;13.10;80.20;;;;;;4978729;28;20059;-78
2023/05/23 05:07:45;;;;;;;8.13;2.40;;;13.20;80.20;;;;;;4970081;28;20055;-78
2023/05/23 05:10:15;;;;;;;11.70;3.55;;;13.10;80.40;;;;;;4985778;28;20051;-78
2023/05/23 05:12:43;;;;;;;9.80;3.53;;;13.10;80.20;;;;;;4953340;28;20161;-79
2023/05/23 05:15:11;;;;;;;11.07;3.53;;;13.10;80.20;;;;;;4961934;28;20043;-79
2023/05/23 05:17:39;;;;;;;9.40;3.30;;;13.10;80.50;;;;;;4953182;28;20063;-78
2023/05/23 05:20:10;;;;;;;10.57;3.50;;;13.10;80.60;;;;;;4965663;28;20738;-78
2023/05/23 05:22:41;;;;;;;9.80;3.88;;;13.10;80.60;;;;;;4968397;28;20051;-79
2023/05/23 05:25:10;;;;;;;6.95;3.03;;;13.10;80.50;;;;;;4965485;28;20039;-79
2023/05/23 05:27:39;;;;;;;9.68;3.72;;;13.10;80.40;;;;;;4947819;28;20061;-79
2023/05/23 05:30:10;;;;;;;12.93;4.10;;;13.10;80.50;;;;;;4967039;28;20772;-78
2023/05/23 05:32:50;;;;;;;15.40;4.33;;;13.10;80.50;;;;;;4948758;28;20198;-78
2023/05/23 05:35:18;;;;;;;13.13;3.53;;;13.10;80.50;;;;;;4932962;28;20911;-79
2023/05/23 05:37:46;;;;;;;12.02;4.22;;;13.00;80.40;;;;;;4966302;28;20093;-78
2023/05/23 05:40:13;;;;;;;11.73;3.78;;;13.00;80.40;;;;;;4953187;28;20138;-78
2023/05/23 05:42:44;;;;;;;13.88;4.00;;;13.00;80.10;;;;;;4955500;28;20047;-78
2023/05/23 05:45:12;;;;;;;11.70;3.93;;;13.00;80.00;;;;;;4951213;28;20101;-78
2023/05/23 05:47:41;;;;;;;10.38;4.00;;;13.00;80.00;;;;;;4951780;28;20043;-79
2023/05/23 05:50:09;;;;;;;10.93;4.13;;;13.10;80.00;;;;;;4968285;28;20047;-78
2023/05/23 05:52:38;;;;;;;10.73;3.90;;;13.10;80.00;;;;;;4950321;28;20055;-78
2023/05/23 05:55:10;;;;;;;11.60;3.47;;;13.10;79.80;;;;;;4967935;28;20138;-79
2023/05/23 05:57:41;;;;;;;8.67;3.10;;;13.10;79.80;;;;;;4950135;28;20573;-79
2023/05/23 06:00:14;;;;;;;9.63;3.35;;;13.10;78.70;;;;;;4966753;28;20052;-78
2023/05/23 06:02:47;;;;;;;8.88;2.85;;;13.10;78.90;;;;;;4965143;28;20142;-78
2023/05/23 06:05:18;;;;;;;11.00;3.97;;;13.10;78.30;;;;;;4936600;28;20047;-78
2023/05/23 06:07:48;;;;;;;9.57;2.67;;;13.10;78.40;;;;;;4963524;28;20055;-78
2023/05/23 06:10:16;;;;;;;10.90;3.53;;;13.10;78.60;;;;;;4967973;28;20055;-79
2023/05/23 06:12:44;;;;;;;11.52;3.58;;;13.10;77.90;;;;;;4952047;28;20054;-78
2023/05/23 06:15:13;;;;;;;9.30;2.90;;;13.00;77.50;;;;;;4947502;28;20890;-78
2023/05/23 06:17:41;;;;;;;11.05;2.80;;;13.00;77.60;;;;;;4949261;28;20055;-78
2023/05/23 06:20:08;;;;;;;10.55;2.78;;;13.00;77.00;;;;;;4952240;28;20066;-79
2023/05/23 06:22:38;;;;;;;8.10;2.87;;;13.00;76.90;;;;;;4949851;28;20137;-78
2023/05/23 06:25:06;;;;;;;8.18;2.75;;;13.00;77.00;;;;;;4951086;28;20043;-78
2023/05/23 06:27:33;;;;;;;11.07;3.22;;;12.90;76.80;;;;;;4950861;28;20589;-78
2023/05/23 06:30:00;;;;;;;9.23;2.80;;;12.90;76.20;;;;;;4953016;28;20577;-79
2023/05/23 06:32:30;;;;;;;10.60;2.83;;;12.80;76.00;;;;;;4966549;28;20067;-79
2023/05/23 06:34:58;;;;;;;9.30;2.97;;;12.80;76.50;;;;;;4946002;28;20071;-78
2023/05/23 06:37:25;;;;;;;10.18;2.90;;;12.80;76.70;;;;;;4948528;28;20071;-79
2023/05/23 06:39:52;;;;;;;8.68;2.90;;;12.80;76.80;;;;;;4943869;28;20047;-79
2023/05/23 06:42:19;;;;;;;10.63;3.47;;;12.80;76.60;;;;;;4949310;28;20055;-79
2023/05/23 06:44:56;;;;;;;9.30;2.95;;;12.80;76.50;;;;;;4965018;28;20058;-79
2023/05/23 06:47:25;;;;;;;10.67;3.00;;;12.80;76.70;;;;;;4951007;28;20059;-79
2023/05/23 06:49:53;;;;;;;11.00;2.38;;;12.80;76.70;;;;;;4955991;28;20056;-79
2023/05/23 06:52:20;;;;;;;10.38;2.83;;;12.80;76.20;;;;;;4953510;28;20138;-79
2023/05/23 06:54:48;;;;;;;8.38;2.05;;;12.80;76.60;;;;;;4940532;28;20138;-80
2023/05/23 06:57:15;;;;;;;9.50;2.55;;;12.80;76.60;;;;;;4941406;28;20051;-79
2023/05/23 06:59:42;;;;;;;9.80;2.63;;;12.90;76.60;;;;;;4963179;28;20123;-80
2023/05/23 07:02:11;;;;;;;10.55;3.35;;;12.90;76.50;;;;;;4945151;28;20051;-79
2023/05/23 07:04:38;;;;;;;12.35;2.60;;;12.90;76.40;;;;;;4954022;28;20992;-79
2023/05/23 07:07:14;;;;;;;7.15;2.10;;;12.90;76.50;;;;;;4950676;28;20051;-80
2023/05/23 07:09:42;;;;;;;10.13;2.72;;;12.90;76.30;;;;;;4948586;28;20047;-79
2023/05/23 07:12:14;;;;;;;8.13;1.90;;;12.90;76.40;;;;;;4971410;28;20047;-79
2023/05/23 07:14:43;;;;;;;11.25;2.25;;;12.90;76.10;;;;;;4966576;28;20430;-79
2023/05/23 07:17:11;;;;;;;11.65;2.83;;;12.80;76.20;;;;;;4951972;28;21054;-78
2023/05/23 07:19:39;;;;;;;11.65;2.35;;;12.80;76.00;;;;;;4951889;28;20052;-78
2023/05/23 07:22:06;;;;;;;11.02;2.50;;;12.90;75.80;;;;;;4964232;28;20048;-79
2023/05/23 07:24:38;;;;;;;12.40;2.50;;;12.90;75.90;;;;;;4967384;28;20941;-79
2023/05/23 07:27:06;;;;;;;9.90;2.20;;;12.90;75.60;;;;;;4948891;28;20051;-75
2023/05/23 07:29:34;;;;;;;9.82;1.75;;;12.90;75.50;;;;;;4973020;28;20055;-74
2023/05/23 07:32:01;;;;;;;10.23;2.08;;;12.90;74.70;;;;;;4951503;28;20055;-75
2023/05/23 07:34:30;;;;;;;12.60;2.83;;;12.90;75.00;;;;;;4980504;28;20825;-75
2023/05/23 07:37:00;;;;;;;9.33;2.20;;;12.90;75.10;;;;;;4958629;28;21047;-75
2023/05/23 07:39:32;;;;;;;13.73;2.40;;;12.90;75.00;;;;;;4970273;28;20127;-76
2023/05/23 07:42:03;;;;;;;9.80;2.20;;;12.90;74.70;;;;;;4953088;28;20047;-76
2023/05/23 07:44:31;;;;;;;13.65;2.80;;;12.90;74.70;;;;;;4969715;28;20062;-75
2023/05/23 07:46:58;;;;;;;12.23;2.40;;;12.90;74.40;;;;;;4970087;28;20060;-76
2023/05/23 07:49:37;;;;;;;10.57;2.53;;;12.90;74.30;;;;;;4957865;28;20051;-75
2023/05/23 07:52:06;;;;;;;9.85;2.03;;;12.90;73.40;;;;;;4954170;28;20130;-74
2023/05/23 07:54:34;;;;;;;12.20;2.83;;;13.00;73.60;;;;;;4949128;28;20662;-75
2023/05/23 07:57:06;;;;;;;14.57;2.80;;;13.00;73.30;;;;;;4969219;28;20098;-75
2023/05/23 07:59:34;;;;;;;12.70;2.65;;;13.00;73.20;;;;;;4951389;28;20059;-75
2023/05/23 08:02:02;;;;;;;13.63;2.60;;;12.90;72.50;;;;;;4951207;28;20477;-75
2023/05/23 08:04:29;;;;;;;8.98;1.70;;;12.90;72.50;;;;;;4947788;28;20047;-76
2023/05/23 08:06:57;;;;;;;10.15;2.60;;;12.90;72.60;;;;;;4947909;28;20871;-76
2023/05/23 08:09:27;;;;;;;8.77;2.00;;;12.90;72.40;;;;;;4948427;28;20529;-76
2023/05/23 08:11:57;;;;;;;10.55;1.95;;;12.90;72.50;;;;;;4948423;28;20829;-76
2023/05/23 08:14:26;;;;;;;13.23;2.50;;;12.90;72.30;;;;;;4951670;28;20055;-75
2023/05/23 08:17:02;;;;;;;13.75;2.40;;;13.00;72.50;;;;;;4970716;28;20055;-74
2023/05/23 08:19:29;;;;;;;12.82;2.45;;;13.00;72.10;;;;;;4966438;28;20154;-75
2023/05/23 08:21:56;;;;;;;11.80;2.40;;;13.00;72.20;;;;;;4954817;28;20051;-76
2023/05/23 08:24:24;;;;;;;11.45;2.30;;;13.00;72.00;;;;;;4970642;28;20054;-76
2023/05/23 08:26:51;;;;;;;12.43;2.00;;;13.00;71.80;;;;;;4972300;28;20062;-76
2023/05/23 08:29:19;;;;;;;8.85;1.33;;;13.00;71.50;;;;;;4952983;28;20067;-75
2023/05/23 08:31:48;;;;;;;14.43;2.80;;;13.00;71.60;;;;;;4953904;28;20062;-75
2023/05/23 08:34:16;;;;;;;10.80;2.22;;;13.00;71.20;;;;;;4970204;28;20071;-75
2023/05/23 08:36:43;;;;;;;12.23;2.47;;;13.00;71.20;;;;;;4968851;28;20047;-75
2023/05/23 08:39:16;;;;;;;8.27;2.30;;;13.00;70.90;;;;;;4968590;28;20051;-75
2023/05/23 08:41:53;;;;;;;13.65;2.40;;;13.00;71.10;;;;;;4967107;28;20062;-76
2023/05/23 08:44:21;;;;;;;12.57;2.40;;;13.10;71.30;;;;;;4969214;28;20058;-75
2023/05/23 08:46:54;;;;;;;10.73;2.33;;;13.10;71.00;;;;;;4947646;28;20540;-75
2023/05/23 08:49:41;;;;;;;10.52;2.08;;;13.10;71.20;;;;;;4965913;28;20993;-75
2023/05/23 08:52:12;;;;;;;12.97;2.93;;;13.10;71.30;;;;;;4933287;28;20055;-74
2023/05/23 08:54:42;;;;;;;13.90;2.60;;;13.10;71.40;;;;;;4964535;28;20066;-75
2023/05/23 08:57:13;;;;;;;14.82;2.72;;;13.20;70.80;;;;;;4950342;28;20055;-73
2023/05/23 08:59:46;;;;;;;10.73;2.47;;;13.20;71.10;;;;;;4957985;28;20058;-75
2023/05/23 09:02:17;;;;;;;14.93;2.50;;;13.30;71.20;;;;;;4960978;28;20078;-75
2023/05/23 09:04:45;;;;;;;12.27;2.73;;;13.30;71.30;;;;;;4955746;28;20055;-75
2023/05/23 09:07:18;;;;;;;13.88;2.45;;;13.30;70.90;;;;;;4967921;28;20066;-75
2023/05/23 09:09:46;;;;;;;12.05;2.67;;;13.40;70.40;;;;;;4949632;28;20047;-75
2023/05/23 09:12:15;;;;;;;14.55;2.67;;;13.50;69.20;;;;;;4950981;28;20111;-75
2023/05/23 09:14:44;;;;;;;14.88;2.60;;;13.50;69.80;;;;;;4963499;28;20491;-75
2023/05/23 09:17:18;;;;;;;11.67;2.27;;;13.50;70.10;;;;;;4948880;28;20062;-75
2023/05/23 09:19:47;;;;;;;8.60;2.28;;;13.50;69.30;;;;;;4948343;28;20047;-75
2023/05/23 09:22:25;;;;;;;10.73;2.17;;;13.50;68.60;;;;;;4942156;28;20051;-75
2023/05/23 09:25:02;;;;;;;11.40;2.40;;;13.50;68.60;;;;;;4967482;28;20073;-76
2023/05/23 09:27:30;;;;;;;10.45;2.35;;;13.50;69.10;;;;;;4952893;28;20055;-75
2023/05/23 09:29:57;;;;;;;7.70;1.73;;;13.60;69.00;;;;;;4949047;28;20926;-75
2023/05/23 09:32:28;;;;;;;12.65;2.22;;;13.60;68.60;;;;;;4973084;28;20094;-77
2023/05/23 09:34:57;;;;;;;10.63;2.17;;;13.60;68.20;;;;;;4950064;28;20102;-74
2023/05/23 09:37:30;;;;;;;9.10;2.53;;;13.60;67.70;;;;;;4951298;28;20047;-75
2023/05/23 09:39:58;;;;;;;9.32;2.05;;;13.70;68.20;;;;;;4951448;28;20127;-75
2023/05/23 09:42:31;;;;;;;13.37;2.27;;;13.70;68.40;;;;;;4950129;28;20553;-76
2023/05/23 09:45:00;;;;;;;15.35;2.50;;;13.70;68.50;;;;;;4951669;28;20904;-76
2023/05/23 09:47:31;;;;;;;8.63;2.30;;;13.70;68.50;;;;;;4951517;28;20047;-75
2023/05/23 09:49:58;;;;;;;14.32;2.83;;;13.80;68.10;;;;;;4950172;28;20070;-76
2023/05/23 09:52:25;;;;;;;15.25;2.47;;;13.80;68.00;;;;;;4968001;28;20138;-76
2023/05/23 09:54:54;;;;;;;11.63;2.30;;;13.90;68.10;;;;;;4949108;28;20052;-76
2023/05/23 09:57:22;;;;;;;9.45;2.17;;;13.90;67.90;;;;;;4948486;28;20043;-76
2023/05/23 09:59:54;;;;;;;11.48;2.33;;;13.90;68.00;;;;;;4964417;28;20118;-76
2023/05/23 10:02:54;;;;;;;13.02;2.30;;;13.90;67.90;;;;;;4967153;28;20086;-76
2023/05/23 10:05:32;;;;;;;11.10;2.28;;;13.90;67.90;;;;;;4967497;28;20421;-77
2023/05/23 10:08:01;;;;;;;11.60;2.20;;;14.00;67.60;;;;;;4964347;28;20134;-77
2023/05/23 10:10:31;;;;;;;11.82;2.38;;;14.00;67.60;;;;;;4967241;28;20052;-76
2023/05/23 10:13:02;;;;;;;10.38;2.05;;;14.10;67.60;;;;;;4965790;28;20055;-77
2023/05/23 10:15:39;;;;;;;7.82;1.70;;;14.10;67.50;;;;;;4950436;28;20130;-77
2023/05/23 10:18:12;;;;;;;9.50;1.92;;;14.10;66.40;;;;;;4950176;28;20497;-77
2023/05/23 10:20:41;;;;;;;6.80;2.00;;;14.20;66.70;;;;;;4950771;28;20051;-76
2023/05/23 10:23:08;;;;;;;10.93;1.92;;;14.20;64.10;;;;;;4968958;28;20055;-76
2023/05/23 10:25:36;;;;;;;12.20;2.10;;;14.20;64.80;;;;;;4966031;28;20925;-76
2023/05/23 10:28:04;;;;;;;10.00;2.33;;;14.20;65.70;;;;;;4963959;28;20051;-77
2023/05/23 10:30:32;;;;;;;11.05;2.17;;;14.30;66.10;;;;;;4965560;28;20124;-77
2023/05/23 10:32:59;;;;;;;11.40;1.57;;;14.30;66.30;;;;;;4955125;28;20076;-76
2023/05/23 10:35:47;;;;;;;10.45;2.30;;;14.40;66.40;;;;;;4964110;28;20583;-77
2023/05/23 10:38:28;;;;;;;11.80;1.88;;;14.40;66.20;;;;;;4966279;28;20082;-75
2023/05/23 10:41:02;;;;;;;12.48;2.17;;;14.50;65.90;;;;;;4964509;28;20075;-78
2023/05/23 10:43:34;;;;;;;10.55;1.88;;;14.50;66.00;;;;;;4969051;28;20059;-80
2023/05/23 10:46:01;;;;;;;9.17;2.07;;;14.60;65.50;;;;;;4967754;28;20061;-79
2023/05/23 10:48:34;;;;;;;10.02;2.05;;;14.60;65.70;;;;;;4950586;28;20051;-79
2023/05/23 10:51:07;;;;;;;12.57;2.58;;;14.60;65.80;;;;;;4966754;28;20556;-78
2023/05/23 10:53:36;;;;;;;13.88;2.50;;;14.70;66.00;;;;;;4968609;28;20054;-79
2023/05/23 10:56:06;;;;;;;9.05;2.22;;;14.70;65.90;;;;;;4950900;28;20075;-79
2023/05/23 10:58:35;;;;;;;8.83;1.83;;;14.80;66.20;;;;;;4965692;28;20055;-78
2023/05/23 11:01:05;;;;;;;11.73;1.90;;;14.80;65.70;;;;;;4968610;28;20259;-79
2023/05/23 11:03:37;;;;;;;10.35;2.40;;;14.80;65.60;;;;;;4969914;28;20055;-78
2023/05/23 11:06:07;;;;;;;10.32;2.10;;;14.90;64.90;;;;;;4969635;28;20102;-78
2023/05/23 11:08:41;;;;;;;11.10;2.00;;;14.90;65.00;;;;;;4947513;28;20060;-78
2023/05/23 11:11:08;;;;;;;9.90;2.30;;;14.90;64.90;;;;;;4957306;28;20083;-78
2023/05/23 11:13:58;;;;;;;9.93;2.25;;;15.00;65.40;;;;;;4966332;28;20059;-78
2023/05/23 11:16:31;;;;;;;11.13;1.92;;;15.00;62.90;;;;;;4967181;28;20425;-79
2023/05/23 11:19:24;;;;;;;11.23;2.17;;;15.00;64.30;;;;;;4950963;28;20565;-79
2023/05/23 11:21:55;;;;;;;9.05;1.50;;;15.10;64.00;;;;;;4949218;28;20047;-80
2023/05/23 11:24:22;;;;;;;9.80;2.53;;;15.10;64.60;;;;;;4942899;28;20044;-78
2023/05/23 11:26:56;;;;;;;9.07;2.10;;;15.20;64.00;;;;;;4949888;28;20047;-79
2023/05/23 11:29:23;;;;;;;10.98;1.83;;;15.20;64.20;;;;;;4943338;28;20130;-78
2023/05/23 11:31:50;;;;;;;12.38;2.58;;;15.20;64.10;;;;;;4960554;28;20079;-79
2023/05/23 11:34:18;;;;;;;8.13;1.75;;;15.30;63.00;;;;;;4959616;28;20630;-79
2023/05/23 11:36:45;;;;;;;7.40;1.90;;;15.30;63.30;;;;;;4961591;28;20457;-78
2023/05/23 11:39:14;;;;;;;9.70;1.85;;;15.40;63.20;;;;;;4951530;28;20168;-79
2023/05/23 11:41:42;;;;;;;11.00;2.05;;;15.40;62.90;;;;;;4965509;28;20507;-78
2023/05/23 11:44:13;;;;;;;12.77;2.08;;;15.40;62.80;;;;;;4965173;28;20055;-79
2023/05/23 11:46:40;;;;;;;7.07;1.98;;;15.50;62.30;;;;;;4949715;28;20906;-78
2023/05/23 11:49:11;;;;;;;9.67;1.90;;;15.50;61.90;;;;;;4965250;28;20421;-79
2023/05/23 11:51:38;;;;;;;9.88;1.98;;;15.50;62.10;;;;;;4948996;28;20087;-79
2023/05/23 11:54:06;;;;;;;10.73;2.80;;;15.50;62.50;;;;;;4966887;28;20060;-79
2023/05/23 11:56:40;;;;;;;11.13;2.35;;;15.50;61.90;;;;;;4949324;28;20067;-79
2023/05/23 11:59:07;;;;;;;12.05;2.85;;;15.60;62.30;;;;;;4948224;28;20099;-78
2023/05/23 12:01:37;;;;;;;10.00;1.70;;;15.60;62.40;;;;;;4960658;28;20086;-79
2023/05/23 12:04:09;;;;;;;11.23;2.15;;;15.60;62.20;;;;;;4961384;28;21071;-79
2023/05/23 12:06:39;;;;;;;10.30;2.25;;;15.60;62.50;;;;;;4940966;28;20051;-79
2023/05/23 12:09:06;;;;;;;9.90;2.03;;;15.60;62.50;;;;;;4965706;28;20060;-79
2023/05/23 12:11:34;;;;;;;12.57;2.10;;;15.60;62.00;;;;;;4948928;28;20474;-79
2023/05/23 12:14:05;;;;;;;11.87;1.57;;;15.60;62.10;;;;;;4942780;28;20058;-79
2023/05/23 12:16:33;;;;;;;9.75;2.28;;;15.60;62.70;;;;;;4970549;28;20055;-79
2023/05/23 12:19:01;;;;;;;10.48;2.40;;;15.60;59.30;;;;;;4970423;28;20070;-79
2023/05/23 12:21:40;;;;;;;10.63;2.28;;;15.60;59.70;;;;;;4953950;28;20063;-79
2023/05/23 12:24:23;;;;;;;11.60;2.00;;;15.50;60.50;;;;;;4967455;28;20731;-78
2023/05/23 12:26:51;;;;;;;10.17;2.30;;;15.50;60.70;;;;;;4954467;28;20505;-79
2023/05/23 12:29:30;;;;;;;7.50;1.73;;;15.50;60.70;;;;;;4951194;28;20047;-79
2023/05/23 12:31:59;;;;;;;9.32;1.92;;;15.50;61.20;;;;;;4950528;28;20057;-79
2023/05/23 12:34:26;;;;;;;8.45;1.63;;;15.60;61.00;;;;;;4954323;28;20130;-79
2023/05/23 12:36:55;;;;;;;8.75;1.67;;;15.60;60.90;;;;;;4953868;28;20098;-79
2023/05/23 12:39:25;;;;;;;12.57;2.23;;;15.60;61.30;;;;;;4971411;28;20059;-79
2023/05/23 12:41:54;;;;;;;8.95;1.75;;;15.60;61.10;;;;;;4953710;28;20087;-79
2023/05/23 12:44:23;;;;;;;11.70;2.10;;;15.60;60.40;;;;;;4953605;28;20222;-79
2023/05/23 12:46:50;;;;;;;11.90;2.47;;;15.70;60.80;;;;;;4970414;28;20509;-79
2023/05/23 12:49:17;;;;;;;5.35;1.55;;;15.70;61.00;;;;;;4953838;28;20051;-79
2023/05/23 12:51:44;;;;;;;7.00;1.27;;;15.80;60.30;;;;;;4971517;28;20203;-79